sensor_id;sensor_type;location;lat;lon;timestamp;P1;durP1;ratioP1;P2;durP2;ratioP2
84738;SDS011;74969;44.836;-0.586;2024-03-22T00:00:21;13.27;;;8.83;;
84738;SDS011;74969;44.836;-0.586;2024-03-22T00:02:47;13.23;;;8.07;;
84738;SDS011;74969;44.836;-0.586;2024-03-22T00:05:12;9.93;;;6.33;;
84738;SDS011;74969;44.836;-0.586;2024-03-22T00:07:38;8.40;;;6.60;;
84738;SDS011;74969;44.836;-0.586;2024-03-22T00:10:05;9.37;;;6.07;;
84738;SDS011;74969;44.836;-0.586;2024-03-22T00:12:31;11.93;;;6.97;;
84738;SDS011;74969;44.836;-0.586;2024-03-22T00:14:56;10.63;;;6.33;;
84738;SDS011;74969;44.836;-0.586;2024-03-22T00:17:23;12.32;;;5.95;;
84738;SDS011;74969;44.836;-0.586;2024-03-22T00:19:48;8.90;;;6.28;;
84738;SDS011;74969;44.836;-0.586;2024-03-22T00:22:14;13.73;;;6.77;;
84738;SDS011;74969;44.836;-0.586;2024-03-22T00:24:40;12.18;;;7.05;;
84738;SDS011;74969;44.836;-0.586;2024-03-22T00:27:06;9.85;;;6.68;;
84738;SDS011;74969;44.836;-0.586;2024-03-22T00:29:32;8.93;;;6.20;;
84738;SDS011;74969;44.836;-0.586;2024-03-22T00:31:58;9.43;;;6.97;;
84738;SDS011;74969;44.836;-0.586;2024-03-22T00:34:23;10.00;;;6.70;;
84738;SDS011;74969;44.836;-0.586;2024-03-22T00:36:49;10.48;;;6.93;;
84738;SDS011;74969;44.836;-0.586;2024-03-22T00:39:16;12.65;;;6.88;;
84738;SDS011;74969;44.836;-0.586;2024-03-22T00:41:42;11.75;;;6.72;;
84738;SDS011;74969;44.836;-0.586;2024-03-22T00:44:08;12.88;;;6.97;;
84738;SDS011;74969;44.836;-0.586;2024-03-22T00:46:33;8.40;;;6.77;;
84738;SDS011;74969;44.836;-0.586;2024-03-22T00:49:00;8.85;;;6.50;;
84738;SDS011;74969;44.836;-0.586;2024-03-22T00:51:26;7.63;;;6.57;;
84738;SDS011;74969;44.836;-0.586;2024-03-22T00:53:52;9.45;;;6.80;;
84738;SDS011;74969;44.836;-0.586;2024-03-22T00:56:18;9.15;;;6.47;;
84738;SDS011;74969;44.836;-0.586;2024-03-22T00:58:44;12.73;;;7.60;;
84738;SDS011;74969;44.836;-0.586;2024-03-22T01:01:09;15.13;;;7.20;;
84738;SDS011;74969;44.836;-0.586;2024-03-22T01:03:35;8.47;;;6.57;;
84738;SDS011;74969;44.836;-0.586;2024-03-22T01:06:01;9.88;;;7.07;;
84738;SDS011;74969;44.836;-0.586;2024-03-22T01:08:27;9.70;;;6.93;;
84738;SDS011;74969;44.836;-0.586;2024-03-22T01:10:53;10.48;;;6.43;;
84738;SDS011;74969;44.836;-0.586;2024-03-22T01:13:19;9.65;;;6.78;;
84738;SDS011;74969;44.836;-0.586;2024-03-22T01:15:44;11.57;;;6.83;;
84738;SDS011;74969;44.836;-0.586;2024-03-22T01:18:11;9.10;;;6.50;;
84738;SDS011;74969;44.836;-0.586;2024-03-22T01:20:37;13.45;;;7.20;;
84738;SDS011;74969;44.836;-0.586;2024-03-22T01:23:02;10.27;;;6.77;;
84738;SDS011;74969;44.836;-0.586;2024-03-22T01:25:29;8.43;;;6.05;;
84738;SDS011;74969;44.836;-0.586;2024-03-22T01:27:55;9.50;;;6.32;;
84738;SDS011;74969;44.836;-0.586;2024-03-22T01:30:21;9.55;;;6.47;;
84738;SDS011;74969;44.836;-0.586;2024-03-22T01:32:47;7.90;;;6.33;;
84738;SDS011;74969;44.836;-0.586;2024-03-22T01:35:13;10.55;;;6.70;;
84738;SDS011;74969;44.836;-0.586;2024-03-22T01:37:39;7.63;;;6.83;;
84738;SDS011;74969;44.836;-0.586;2024-03-22T01:40:05;11.15;;;6.95;;
84738;SDS011;74969;44.836;-0.586;2024-03-22T01:42:31;15.68;;;10.40;;
84738;SDS011;74969;44.836;-0.586;2024-03-22T01:44:57;24.40;;;15.03;;
84738;SDS011;74969;44.836;-0.586;2024-03-22T01:47:22;13.88;;;9.60;;
84738;SDS011;74969;44.836;-0.586;2024-03-22T01:49:49;9.60;;;7.13;;
84738;SDS011;74969;44.836;-0.586;2024-03-22T01:52:18;10.73;;;7.32;;
84738;SDS011;74969;44.836;-0.586;2024-03-22T01:54:44;13.30;;;7.60;;
84738;SDS011;74969;44.836;-0.586;2024-03-22T01:57:10;11.37;;;7.93;;
84738;SDS011;74969;44.836;-0.586;2024-03-22T01:59:35;11.85;;;7.50;;
84738;SDS011;74969;44.836;-0.586;2024-03-22T02:02:01;11.60;;;7.83;;
84738;SDS011;74969;44.836;-0.586;2024-03-22T02:04:27;12.30;;;7.82;;
84738;SDS011;74969;44.836;-0.586;2024-03-22T02:06:53;18.50;;;7.70;;
84738;SDS011;74969;44.836;-0.586;2024-03-22T02:09:19;12.32;;;7.50;;
84738;SDS011;74969;44.836;-0.586;2024-03-22T02:11:46;11.13;;;7.43;;
84738;SDS011;74969;44.836;-0.586;2024-03-22T02:14:12;12.87;;;7.57;;
84738;SDS011;74969;44.836;-0.586;2024-03-22T02:16:39;10.68;;;7.47;;
84738;SDS011;74969;44.836;-0.586;2024-03-22T02:19:05;8.93;;;6.88;;
84738;SDS011;74969;44.836;-0.586;2024-03-22T02:21:32;11.43;;;7.90;;
84738;SDS011;74969;44.836;-0.586;2024-03-22T02:23:57;11.93;;;8.23;;
84738;SDS011;74969;44.836;-0.586;2024-03-22T02:26:23;10.57;;;7.50;;
84738;SDS011;74969;44.836;-0.586;2024-03-22T02:28:48;12.03;;;8.07;;
84738;SDS011;74969;44.836;-0.586;2024-03-22T02:31:14;10.43;;;7.70;;
84738;SDS011;74969;44.836;-0.586;2024-03-22T02:33:40;10.50;;;7.32;;
84738;SDS011;74969;44.836;-0.586;2024-03-22T02:36:06;10.35;;;7.47;;
84738;SDS011;74969;44.836;-0.586;2024-03-22T02:38:32;11.70;;;7.47;;
84738;SDS011;74969;44.836;-0.586;2024-03-22T02:40:58;10.02;;;7.07;;
84738;SDS011;74969;44.836;-0.586;2024-03-22T02:43:24;15.35;;;10.98;;
84738;SDS011;74969;44.836;-0.586;2024-03-22T02:45:50;15.30;;;10.73;;
84738;SDS011;74969;44.836;-0.586;2024-03-22T02:48:15;15.20;;;9.65;;
84738;SDS011;74969;44.836;-0.586;2024-03-22T02:50:41;11.37;;;7.97;;
84738;SDS011;74969;44.836;-0.586;2024-03-22T02:53:07;9.77;;;8.10;;
84738;SDS011;74969;44.836;-0.586;2024-03-22T02:55:36;13.50;;;9.10;;
84738;SDS011;74969;44.836;-0.586;2024-03-22T02:58:03;11.03;;;8.00;;
84738;SDS011;74969;44.836;-0.586;2024-03-22T03:00:30;11.95;;;7.25;;
84738;SDS011;74969;44.836;-0.586;2024-03-22T03:02:56;8.18;;;7.03;;
84738;SDS011;74969;44.836;-0.586;2024-03-22T03:05:21;9.70;;;6.95;;
84738;SDS011;74969;44.836;-0.586;2024-03-22T03:07:50;10.50;;;8.20;;
84738;SDS011;74969;44.836;-0.586;2024-03-22T03:10:16;12.60;;;6.97;;
84738;SDS011;74969;44.836;-0.586;2024-03-22T03:12:42;10.20;;;7.50;;
84738;SDS011;74969;44.836;-0.586;2024-03-22T03:15:07;8.40;;;7.28;;
84738;SDS011;74969;44.836;-0.586;2024-03-22T03:17:33;8.90;;;7.25;;
84738;SDS011;74969;44.836;-0.586;2024-03-22T03:19:59;14.50;;;7.80;;
84738;SDS011;74969;44.836;-0.586;2024-03-22T03:22:25;8.32;;;7.53;;
84738;SDS011;74969;44.836;-0.586;2024-03-22T03:24:50;10.37;;;7.60;;
84738;SDS011;74969;44.836;-0.586;2024-03-22T03:27:16;9.60;;;7.50;;
84738;SDS011;74969;44.836;-0.586;2024-03-22T03:29:41;10.73;;;7.28;;
84738;SDS011;74969;44.836;-0.586;2024-03-22T03:32:07;11.30;;;7.07;;
84738;SDS011;74969;44.836;-0.586;2024-03-22T03:34:33;12.63;;;8.02;;
84738;SDS011;74969;44.836;-0.586;2024-03-22T03:36:59;8.00;;;7.00;;
84738;SDS011;74969;44.836;-0.586;2024-03-22T03:39:26;12.80;;;7.95;;
84738;SDS011;74969;44.836;-0.586;2024-03-22T03:41:54;9.93;;;7.55;;
84738;SDS011;74969;44.836;-0.586;2024-03-22T03:44:20;11.27;;;7.60;;
84738;SDS011;74969;44.836;-0.586;2024-03-22T03:46:45;9.13;;;7.43;;
84738;SDS011;74969;44.836;-0.586;2024-03-22T03:49:11;10.73;;;7.63;;
84738;SDS011;74969;44.836;-0.586;2024-03-22T03:51:36;18.20;;;10.93;;
84738;SDS011;74969;44.836;-0.586;2024-03-22T03:54:02;13.27;;;9.07;;
84738;SDS011;74969;44.836;-0.586;2024-03-22T03:56:29;13.48;;;8.43;;
84738;SDS011;74969;44.836;-0.586;2024-03-22T03:58:54;10.98;;;8.77;;
84738;SDS011;74969;44.836;-0.586;2024-03-22T04:01:20;13.30;;;8.23;;
84738;SDS011;74969;44.836;-0.586;2024-03-22T04:03:48;15.70;;;10.05;;
84738;SDS011;74969;44.836;-0.586;2024-03-22T04:06:14;14.68;;;9.25;;
84738;SDS011;74969;44.836;-0.586;2024-03-22T04:08:39;12.97;;;9.23;;
84738;SDS011;74969;44.836;-0.586;2024-03-22T04:11:05;11.95;;;10.02;;
84738;SDS011;74969;44.836;-0.586;2024-03-22T04:13:31;13.00;;;8.77;;
84738;SDS011;74969;44.836;-0.586;2024-03-22T04:15:58;12.48;;;8.50;;
84738;SDS011;74969;44.836;-0.586;2024-03-22T04:18:24;11.85;;;8.38;;
84738;SDS011;74969;44.836;-0.586;2024-03-22T04:20:53;11.83;;;8.97;;
84738;SDS011;74969;44.836;-0.586;2024-03-22T04:23:20;13.88;;;8.23;;
84738;SDS011;74969;44.836;-0.586;2024-03-22T04:25:53;13.43;;;9.07;;
84738;SDS011;74969;44.836;-0.586;2024-03-22T04:28:20;12.38;;;9.25;;
84738;SDS011;74969;44.836;-0.586;2024-03-22T04:30:58;14.23;;;9.00;;
84738;SDS011;74969;44.836;-0.586;2024-03-22T04:33:26;10.68;;;9.57;;
84738;SDS011;74969;44.836;-0.586;2024-03-22T04:35:53;10.48;;;8.40;;
84738;SDS011;74969;44.836;-0.586;2024-03-22T04:38:19;10.88;;;8.77;;
84738;SDS011;74969;44.836;-0.586;2024-03-22T04:40:45;14.03;;;8.73;;
84738;SDS011;74969;44.836;-0.586;2024-03-22T04:43:11;14.60;;;11.40;;
84738;SDS011;74969;44.836;-0.586;2024-03-22T04:45:37;17.87;;;13.00;;
84738;SDS011;74969;44.836;-0.586;2024-03-22T04:48:03;18.88;;;12.43;;
84738;SDS011;74969;44.836;-0.586;2024-03-22T04:50:29;14.50;;;8.98;;
84738;SDS011;74969;44.836;-0.586;2024-03-22T04:52:56;13.85;;;9.57;;
84738;SDS011;74969;44.836;-0.586;2024-03-22T04:55:21;11.17;;;9.00;;
84738;SDS011;74969;44.836;-0.586;2024-03-22T04:57:47;11.95;;;8.63;;
84738;SDS011;74969;44.836;-0.586;2024-03-22T05:00:13;12.43;;;8.53;;
84738;SDS011;74969;44.836;-0.586;2024-03-22T05:02:40;13.63;;;9.20;;
84738;SDS011;74969;44.836;-0.586;2024-03-22T05:05:05;12.50;;;8.82;;
84738;SDS011;74969;44.836;-0.586;2024-03-22T05:07:33;12.02;;;8.98;;
84738;SDS011;74969;44.836;-0.586;2024-03-22T05:09:58;13.00;;;9.37;;
84738;SDS011;74969;44.836;-0.586;2024-03-22T05:12:24;14.35;;;9.98;;
84738;SDS011;74969;44.836;-0.586;2024-03-22T05:14:50;14.00;;;9.53;;
84738;SDS011;74969;44.836;-0.586;2024-03-22T05:17:15;13.07;;;9.88;;
84738;SDS011;74969;44.836;-0.586;2024-03-22T05:19:41;13.80;;;10.27;;
84738;SDS011;74969;44.836;-0.586;2024-03-22T05:22:07;13.65;;;9.35;;
84738;SDS011;74969;44.836;-0.586;2024-03-22T05:24:32;14.18;;;9.88;;
84738;SDS011;74969;44.836;-0.586;2024-03-22T05:26:58;14.32;;;10.00;;
84738;SDS011;74969;44.836;-0.586;2024-03-22T05:29:24;12.82;;;9.38;;
84738;SDS011;74969;44.836;-0.586;2024-03-22T05:31:50;16.30;;;10.63;;
84738;SDS011;74969;44.836;-0.586;2024-03-22T05:34:17;12.32;;;10.05;;
84738;SDS011;74969;44.836;-0.586;2024-03-22T05:36:43;14.27;;;9.25;;
84738;SDS011;74969;44.836;-0.586;2024-03-22T05:39:10;12.30;;;9.10;;
84738;SDS011;74969;44.836;-0.586;2024-03-22T05:41:36;13.30;;;9.23;;
84738;SDS011;74969;44.836;-0.586;2024-03-22T05:44:02;11.45;;;9.20;;
84738;SDS011;74969;44.836;-0.586;2024-03-22T05:46:31;14.20;;;10.07;;
84738;SDS011;74969;44.836;-0.586;2024-03-22T05:48:57;14.55;;;9.82;;
84738;SDS011;74969;44.836;-0.586;2024-03-22T05:51:23;12.43;;;9.50;;
84738;SDS011;74969;44.836;-0.586;2024-03-22T05:53:50;12.85;;;9.80;;
84738;SDS011;74969;44.836;-0.586;2024-03-22T05:56:15;11.07;;;8.93;;
84738;SDS011;74969;44.836;-0.586;2024-03-22T05:58:41;13.15;;;9.30;;
84738;SDS011;74969;44.836;-0.586;2024-03-22T06:01:07;11.63;;;8.87;;
84738;SDS011;74969;44.836;-0.586;2024-03-22T06:03:32;10.90;;;8.57;;
84738;SDS011;74969;44.836;-0.586;2024-03-22T06:05:59;17.13;;;10.60;;
84738;SDS011;74969;44.836;-0.586;2024-03-22T06:08:25;13.00;;;9.57;;
84738;SDS011;74969;44.836;-0.586;2024-03-22T06:10:55;19.88;;;10.75;;
84738;SDS011;74969;44.836;-0.586;2024-03-22T06:13:24;12.50;;;9.63;;
84738;SDS011;74969;44.836;-0.586;2024-03-22T06:15:50;12.85;;;9.65;;
84738;SDS011;74969;44.836;-0.586;2024-03-22T06:18:15;13.68;;;9.80;;
84738;SDS011;74969;44.836;-0.586;2024-03-22T06:20:41;12.80;;;10.07;;
84738;SDS011;74969;44.836;-0.586;2024-03-22T06:23:08;12.60;;;8.75;;
84738;SDS011;74969;44.836;-0.586;2024-03-22T06:25:34;16.38;;;10.90;;
84738;SDS011;74969;44.836;-0.586;2024-03-22T06:28:00;17.08;;;10.10;;
84738;SDS011;74969;44.836;-0.586;2024-03-22T06:30:25;19.80;;;10.73;;
84738;SDS011;74969;44.836;-0.586;2024-03-22T06:32:52;15.00;;;11.75;;
84738;SDS011;74969;44.836;-0.586;2024-03-22T06:35:21;16.98;;;11.32;;
84738;SDS011;74969;44.836;-0.586;2024-03-22T06:37:47;17.52;;;11.23;;
84738;SDS011;74969;44.836;-0.586;2024-03-22T06:40:13;15.68;;;11.82;;
84738;SDS011;74969;44.836;-0.586;2024-03-22T06:42:40;16.63;;;10.98;;
84738;SDS011;74969;44.836;-0.586;2024-03-22T06:45:06;17.55;;;12.70;;
84738;SDS011;74969;44.836;-0.586;2024-03-22T06:47:32;19.42;;;11.88;;
84738;SDS011;74969;44.836;-0.586;2024-03-22T06:49:57;16.37;;;12.37;;
84738;SDS011;74969;44.836;-0.586;2024-03-22T06:52:23;22.17;;;11.93;;
84738;SDS011;74969;44.836;-0.586;2024-03-22T06:54:49;19.10;;;11.70;;
84738;SDS011;74969;44.836;-0.586;2024-03-22T06:57:14;17.53;;;12.20;;
84738;SDS011;74969;44.836;-0.586;2024-03-22T06:59:41;16.55;;;13.23;;
84738;SDS011;74969;44.836;-0.586;2024-03-22T07:02:06;17.20;;;14.18;;
84738;SDS011;74969;44.836;-0.586;2024-03-22T07:04:34;20.23;;;14.60;;
84738;SDS011;74969;44.836;-0.586;2024-03-22T07:07:00;18.80;;;12.80;;
84738;SDS011;74969;44.836;-0.586;2024-03-22T07:09:25;20.17;;;13.57;;
84738;SDS011;74969;44.836;-0.586;2024-03-22T07:11:53;19.55;;;13.20;;
84738;SDS011;74969;44.836;-0.586;2024-03-22T07:14:19;26.10;;;14.00;;
84738;SDS011;74969;44.836;-0.586;2024-03-22T07:16:44;19.60;;;12.37;;
84738;SDS011;74969;44.836;-0.586;2024-03-22T07:19:11;17.67;;;12.27;;
84738;SDS011;74969;44.836;-0.586;2024-03-22T07:21:37;17.98;;;11.57;;
84738;SDS011;74969;44.836;-0.586;2024-03-22T07:24:03;21.13;;;11.15;;
84738;SDS011;74969;44.836;-0.586;2024-03-22T07:26:29;18.10;;;11.23;;
84738;SDS011;74969;44.836;-0.586;2024-03-22T07:28:55;17.70;;;11.40;;
84738;SDS011;74969;44.836;-0.586;2024-03-22T07:31:21;16.13;;;12.35;;
84738;SDS011;74969;44.836;-0.586;2024-03-22T07:33:47;19.80;;;11.90;;
84738;SDS011;74969;44.836;-0.586;2024-03-22T07:36:15;22.77;;;12.13;;
84738;SDS011;74969;44.836;-0.586;2024-03-22T07:38:42;21.87;;;12.13;;
84738;SDS011;74969;44.836;-0.586;2024-03-22T07:41:07;20.75;;;12.18;;
84738;SDS011;74969;44.836;-0.586;2024-03-22T07:43:33;19.97;;;11.10;;
84738;SDS011;74969;44.836;-0.586;2024-03-22T07:45:59;17.65;;;10.82;;
84738;SDS011;74969;44.836;-0.586;2024-03-22T07:48:24;18.00;;;9.73;;
84738;SDS011;74969;44.836;-0.586;2024-03-22T07:50:59;17.02;;;9.98;;
84738;SDS011;74969;44.836;-0.586;2024-03-22T07:53:26;18.33;;;9.93;;
84738;SDS011;74969;44.836;-0.586;2024-03-22T07:55:52;19.83;;;10.75;;
84738;SDS011;74969;44.836;-0.586;2024-03-22T07:58:18;12.98;;;9.45;;
84738;SDS011;74969;44.836;-0.586;2024-03-22T08:00:44;17.30;;;9.82;;
84738;SDS011;74969;44.836;-0.586;2024-03-22T08:03:14;15.97;;;10.10;;
84738;SDS011;74969;44.836;-0.586;2024-03-22T08:05:40;14.82;;;10.85;;
84738;SDS011;74969;44.836;-0.586;2024-03-22T08:08:06;11.53;;;9.73;;
84738;SDS011;74969;44.836;-0.586;2024-03-22T08:10:32;24.85;;;10.90;;
84738;SDS011;74969;44.836;-0.586;2024-03-22T08:12:58;20.73;;;10.63;;
84738;SDS011;74969;44.836;-0.586;2024-03-22T08:15:23;15.17;;;9.90;;
84738;SDS011;74969;44.836;-0.586;2024-03-22T08:17:49;20.73;;;10.25;;
84738;SDS011;74969;44.836;-0.586;2024-03-22T08:20:15;23.57;;;10.53;;
84738;SDS011;74969;44.836;-0.586;2024-03-22T08:22:41;18.67;;;11.95;;
84738;SDS011;74969;44.836;-0.586;2024-03-22T08:25:06;16.90;;;12.70;;
84738;SDS011;74969;44.836;-0.586;2024-03-22T08:27:33;20.15;;;12.75;;
84738;SDS011;74969;44.836;-0.586;2024-03-22T08:29:59;20.17;;;12.45;;
84738;SDS011;74969;44.836;-0.586;2024-03-22T08:32:25;16.88;;;11.00;;
84738;SDS011;74969;44.836;-0.586;2024-03-22T08:34:51;20.27;;;11.00;;
84738;SDS011;74969;44.836;-0.586;2024-03-22T08:37:17;18.23;;;11.75;;
84738;SDS011;74969;44.836;-0.586;2024-03-22T08:42:16;12.20;;;9.10;;
84738;SDS011;74969;44.836;-0.586;2024-03-22T08:44:41;16.48;;;8.65;;
84738;SDS011;74969;44.836;-0.586;2024-03-22T08:47:07;14.85;;;9.75;;
84738;SDS011;74969;44.836;-0.586;2024-03-22T08:49:34;13.25;;;9.63;;
84738;SDS011;74969;44.836;-0.586;2024-03-22T08:52:01;17.10;;;9.27;;
84738;SDS011;74969;44.836;-0.586;2024-03-22T08:54:27;16.98;;;9.57;;
84738;SDS011;74969;44.836;-0.586;2024-03-22T08:56:53;14.43;;;8.98;;
84738;SDS011;74969;44.836;-0.586;2024-03-22T08:59:18;17.97;;;11.10;;
84738;SDS011;74969;44.836;-0.586;2024-03-22T09:01:44;18.02;;;10.40;;
84738;SDS011;74969;44.836;-0.586;2024-03-22T09:04:10;15.37;;;9.93;;
84738;SDS011;74969;44.836;-0.586;2024-03-22T09:06:35;16.42;;;10.02;;
84738;SDS011;74969;44.836;-0.586;2024-03-22T09:09:01;20.40;;;10.63;;
84738;SDS011;74969;44.836;-0.586;2024-03-22T09:11:28;14.43;;;10.15;;
84738;SDS011;74969;44.836;-0.586;2024-03-22T09:13:54;19.70;;;9.75;;
84738;SDS011;74969;44.836;-0.586;2024-03-22T09:16:20;17.43;;;9.53;;
84738;SDS011;74969;44.836;-0.586;2024-03-22T09:18:46;11.95;;;8.32;;
84738;SDS011;74969;44.836;-0.586;2024-03-22T09:21:11;12.13;;;9.37;;
84738;SDS011;74969;44.836;-0.586;2024-03-22T09:23:37;15.57;;;9.52;;
84738;SDS011;74969;44.836;-0.586;2024-03-22T09:26:03;15.67;;;10.43;;
84738;SDS011;74969;44.836;-0.586;2024-03-22T09:28:29;18.63;;;9.70;;
84738;SDS011;74969;44.836;-0.586;2024-03-22T09:30:55;16.80;;;9.23;;
84738;SDS011;74969;44.836;-0.586;2024-03-22T09:33:21;11.17;;;8.50;;
84738;SDS011;74969;44.836;-0.586;2024-03-22T09:35:47;13.88;;;8.43;;
84738;SDS011;74969;44.836;-0.586;2024-03-22T09:38:12;12.87;;;7.87;;
84738;SDS011;74969;44.836;-0.586;2024-03-22T09:40:40;14.48;;;8.70;;
84738;SDS011;74969;44.836;-0.586;2024-03-22T09:43:06;11.73;;;7.72;;
84738;SDS011;74969;44.836;-0.586;2024-03-22T09:45:33;14.15;;;7.63;;
84738;SDS011;74969;44.836;-0.586;2024-03-22T09:47:59;15.03;;;7.43;;
84738;SDS011;74969;44.836;-0.586;2024-03-22T09:50:25;12.30;;;6.25;;
84738;SDS011;74969;44.836;-0.586;2024-03-22T09:52:52;11.18;;;6.53;;
84738;SDS011;74969;44.836;-0.586;2024-03-22T09:55:24;9.27;;;6.75;;
84738;SDS011;74969;44.836;-0.586;2024-03-22T09:57:50;13.27;;;6.50;;
84738;SDS011;74969;44.836;-0.586;2024-03-22T10:00:18;10.20;;;5.87;;
84738;SDS011;74969;44.836;-0.586;2024-03-22T10:02:48;9.93;;;6.63;;
84738;SDS011;74969;44.836;-0.586;2024-03-22T10:05:14;10.35;;;6.25;;
84738;SDS011;74969;44.836;-0.586;2024-03-22T10:07:42;9.00;;;5.70;;
84738;SDS011;74969;44.836;-0.586;2024-03-22T10:10:08;9.30;;;6.07;;
84738;SDS011;74969;44.836;-0.586;2024-03-22T10:12:35;14.37;;;5.60;;
84738;SDS011;74969;44.836;-0.586;2024-03-22T10:15:01;11.13;;;5.93;;
84738;SDS011;74969;44.836;-0.586;2024-03-22T10:17:28;14.85;;;6.45;;
84738;SDS011;74969;44.836;-0.586;2024-03-22T10:19:54;14.93;;;6.18;;
84738;SDS011;74969;44.836;-0.586;2024-03-22T10:22:20;8.20;;;5.13;;
84738;SDS011;74969;44.836;-0.586;2024-03-22T10:24:46;10.30;;;4.80;;
84738;SDS011;74969;44.836;-0.586;2024-03-22T10:27:12;13.18;;;4.75;;
84738;SDS011;74969;44.836;-0.586;2024-03-22T10:29:38;9.02;;;5.20;;
84738;SDS011;74969;44.836;-0.586;2024-03-22T10:32:04;10.00;;;5.40;;
84738;SDS011;74969;44.836;-0.586;2024-03-22T10:34:31;8.95;;;4.97;;
84738;SDS011;74969;44.836;-0.586;2024-03-22T10:37:01;8.98;;;4.72;;
84738;SDS011;74969;44.836;-0.586;2024-03-22T10:39:27;8.20;;;5.05;;
84738;SDS011;74969;44.836;-0.586;2024-03-22T10:41:53;8.87;;;4.80;;
84738;SDS011;74969;44.836;-0.586;2024-03-22T10:44:19;11.30;;;5.60;;
84738;SDS011;74969;44.836;-0.586;2024-03-22T10:46:47;12.00;;;5.32;;
84738;SDS011;74969;44.836;-0.586;2024-03-22T10:49:17;10.18;;;5.20;;
84738;SDS011;74969;44.836;-0.586;2024-03-22T10:51:44;11.83;;;5.50;;
84738;SDS011;74969;44.836;-0.586;2024-03-22T10:54:13;9.65;;;5.53;;
84738;SDS011;74969;44.836;-0.586;2024-03-22T10:56:47;12.85;;;6.07;;
84738;SDS011;74969;44.836;-0.586;2024-03-22T10:59:23;10.65;;;6.10;;
84738;SDS011;74969;44.836;-0.586;2024-03-22T11:01:49;9.15;;;5.32;;
84738;SDS011;74969;44.836;-0.586;2024-03-22T11:04:16;12.63;;;5.67;;
84738;SDS011;74969;44.836;-0.586;2024-03-22T11:06:49;7.22;;;4.50;;
84738;SDS011;74969;44.836;-0.586;2024-03-22T11:09:22;8.38;;;4.30;;
84738;SDS011;74969;44.836;-0.586;2024-03-22T11:11:48;8.85;;;3.97;;
84738;SDS011;74969;44.836;-0.586;2024-03-22T11:14:16;6.78;;;3.67;;
84738;SDS011;74969;44.836;-0.586;2024-03-22T11:16:46;7.80;;;3.73;;
84738;SDS011;74969;44.836;-0.586;2024-03-22T11:19:12;10.52;;;4.20;;
84738;SDS011;74969;44.836;-0.586;2024-03-22T11:21:38;11.70;;;3.73;;
84738;SDS011;74969;44.836;-0.586;2024-03-22T11:24:04;8.65;;;3.30;;
84738;SDS011;74969;44.836;-0.586;2024-03-22T11:26:39;8.73;;;4.07;;
84738;SDS011;74969;44.836;-0.586;2024-03-22T11:29:05;5.25;;;3.03;;
84738;SDS011;74969;44.836;-0.586;2024-03-22T11:31:31;6.90;;;3.27;;
84738;SDS011;74969;44.836;-0.586;2024-03-22T11:33:57;9.27;;;3.60;;
84738;SDS011;74969;44.836;-0.586;2024-03-22T11:36:23;8.90;;;3.65;;
84738;SDS011;74969;44.836;-0.586;2024-03-22T11:38:49;6.63;;;3.40;;
84738;SDS011;74969;44.836;-0.586;2024-03-22T11:41:16;8.05;;;3.55;;
84738;SDS011;74969;44.836;-0.586;2024-03-22T11:43:45;7.72;;;3.35;;
84738;SDS011;74969;44.836;-0.586;2024-03-22T11:46:12;6.10;;;3.20;;
84738;SDS011;74969;44.836;-0.586;2024-03-22T11:48:40;8.90;;;2.90;;
84738;SDS011;74969;44.836;-0.586;2024-03-22T11:51:07;8.63;;;3.20;;
84738;SDS011;74969;44.836;-0.586;2024-03-22T11:53:34;8.68;;;3.05;;
84738;SDS011;74969;44.836;-0.586;2024-03-22T11:56:00;7.30;;;2.90;;
84738;SDS011;74969;44.836;-0.586;2024-03-22T11:58:28;8.38;;;3.45;;
84738;SDS011;74969;44.836;-0.586;2024-03-22T12:00:55;12.05;;;3.75;;
84738;SDS011;74969;44.836;-0.586;2024-03-22T12:03:22;9.17;;;3.03;;
84738;SDS011;74969;44.836;-0.586;2024-03-22T12:05:48;10.20;;;3.65;;
84738;SDS011;74969;44.836;-0.586;2024-03-22T12:08:16;5.18;;;3.05;;
84738;SDS011;74969;44.836;-0.586;2024-03-22T12:10:43;6.88;;;3.05;;
84738;SDS011;74969;44.836;-0.586;2024-03-22T12:13:09;6.50;;;3.20;;
84738;SDS011;74969;44.836;-0.586;2024-03-22T12:15:35;5.75;;;3.13;;
84738;SDS011;74969;44.836;-0.586;2024-03-22T12:18:02;5.82;;;2.97;;
84738;SDS011;74969;44.836;-0.586;2024-03-22T12:20:28;5.88;;;3.20;;
84738;SDS011;74969;44.836;-0.586;2024-03-22T12:22:54;7.38;;;3.20;;
84738;SDS011;74969;44.836;-0.586;2024-03-22T12:25:20;5.70;;;3.10;;
84738;SDS011;74969;44.836;-0.586;2024-03-22T12:27:46;6.55;;;2.50;;
84738;SDS011;74969;44.836;-0.586;2024-03-22T12:30:12;5.60;;;2.97;;
84738;SDS011;74969;44.836;-0.586;2024-03-22T12:32:38;6.47;;;2.90;;
84738;SDS011;74969;44.836;-0.586;2024-03-22T12:35:04;5.07;;;3.08;;
84738;SDS011;74969;44.836;-0.586;2024-03-22T12:37:30;7.13;;;3.15;;
84738;SDS011;74969;44.836;-0.586;2024-03-22T12:39:56;5.93;;;2.73;;
84738;SDS011;74969;44.836;-0.586;2024-03-22T12:42:21;8.65;;;2.95;;
84738;SDS011;74969;44.836;-0.586;2024-03-22T12:44:48;6.50;;;2.70;;
84738;SDS011;74969;44.836;-0.586;2024-03-22T12:47:13;7.78;;;2.88;;
84738;SDS011;74969;44.836;-0.586;2024-03-22T12:49:39;6.20;;;2.80;;
84738;SDS011;74969;44.836;-0.586;2024-03-22T12:52:05;8.50;;;2.97;;
84738;SDS011;74969;44.836;-0.586;2024-03-22T12:54:32;7.25;;;2.60;;
84738;SDS011;74969;44.836;-0.586;2024-03-22T12:56:57;5.37;;;3.10;;
84738;SDS011;74969;44.836;-0.586;2024-03-22T12:59:23;6.05;;;2.47;;
84738;SDS011;74969;44.836;-0.586;2024-03-22T13:01:49;8.70;;;4.37;;
84738;SDS011;74969;44.836;-0.586;2024-03-22T13:04:14;8.75;;;3.42;;
84738;SDS011;74969;44.836;-0.586;2024-03-22T13:06:42;6.77;;;2.73;;
84738;SDS011;74969;44.836;-0.586;2024-03-22T13:09:08;6.05;;;2.70;;
84738;SDS011;74969;44.836;-0.586;2024-03-22T13:11:34;7.65;;;3.20;;
84738;SDS011;74969;44.836;-0.586;2024-03-22T13:14:00;6.82;;;2.90;;
84738;SDS011;74969;44.836;-0.586;2024-03-22T13:16:26;7.10;;;2.90;;
84738;SDS011;74969;44.836;-0.586;2024-03-22T13:18:52;9.90;;;3.17;;
84738;SDS011;74969;44.836;-0.586;2024-03-22T13:21:18;6.85;;;2.92;;
84738;SDS011;74969;44.836;-0.586;2024-03-22T13:23:44;5.93;;;2.83;;
84738;SDS011;74969;44.836;-0.586;2024-03-22T13:26:10;5.32;;;2.83;;
84738;SDS011;74969;44.836;-0.586;2024-03-22T13:28:36;5.13;;;2.80;;
84738;SDS011;74969;44.836;-0.586;2024-03-22T13:31:05;6.77;;;3.00;;
84738;SDS011;74969;44.836;-0.586;2024-03-22T13:33:34;4.78;;;2.67;;
84738;SDS011;74969;44.836;-0.586;2024-03-22T13:36:00;4.65;;;2.72;;
84738;SDS011;74969;44.836;-0.586;2024-03-22T13:38:26;5.40;;;2.80;;
84738;SDS011;74969;44.836;-0.586;2024-03-22T13:40:56;5.77;;;3.10;;
84738;SDS011;74969;44.836;-0.586;2024-03-22T13:43:23;7.22;;;2.97;;
84738;SDS011;74969;44.836;-0.586;2024-03-22T13:45:51;5.20;;;2.78;;
84738;SDS011;74969;44.836;-0.586;2024-03-22T13:48:19;4.20;;;2.72;;
84738;SDS011;74969;44.836;-0.586;2024-03-22T13:50:49;5.45;;;2.88;;
84738;SDS011;74969;44.836;-0.586;2024-03-22T13:53:20;8.03;;;2.70;;
84738;SDS011;74969;44.836;-0.586;2024-03-22T13:55:49;8.32;;;2.75;;
84738;SDS011;74969;44.836;-0.586;2024-03-22T13:58:16;5.80;;;2.55;;
84738;SDS011;74969;44.836;-0.586;2024-03-22T14:00:42;3.80;;;2.75;;
84738;SDS011;74969;44.836;-0.586;2024-03-22T14:03:07;6.03;;;2.90;;
84738;SDS011;74969;44.836;-0.586;2024-03-22T14:05:33;5.45;;;2.80;;
84738;SDS011;74969;44.836;-0.586;2024-03-22T14:07:59;9.10;;;3.80;;
84738;SDS011;74969;44.836;-0.586;2024-03-22T14:10:25;5.23;;;2.53;;
84738;SDS011;74969;44.836;-0.586;2024-03-22T14:12:56;5.85;;;3.10;;
84738;SDS011;74969;44.836;-0.586;2024-03-22T14:15:22;13.05;;;2.90;;
84738;SDS011;74969;44.836;-0.586;2024-03-22T14:17:50;8.23;;;3.00;;
84738;SDS011;74969;44.836;-0.586;2024-03-22T14:20:16;4.07;;;2.83;;